sensor_id;sensor_type;location;lat;lon;timestamp;temperature;humidity
1259;DHT22;619;51.472;6.628;2023-05-20T00:01:36;17.70;57.10
1259;DHT22;619;51.472;6.628;2023-05-20T00:04:01;17.70;57.10
1259;DHT22;619;51.472;6.628;2023-05-20T00:06:29;17.70;57.10
1259;DHT22;619;51.472;6.628;2023-05-20T00:08:56;17.70;57.20
1259;DHT22;619;51.472;6.628;2023-05-20T00:11:24;17.70;57.40
1259;DHT22;619;51.472;6.628;2023-05-20T00:13:52;17.60;57.30
1259;DHT22;619;51.472;6.628;2023-05-20T00:16:18;17.60;57.60
1259;DHT22;619;51.472;6.628;2023-05-20T00:18:46;17.60;57.60
1259;DHT22;619;51.472;6.628;2023-05-20T00:21:11;17.60;57.90
1259;DHT22;619;51.472;6.628;2023-05-20T00:23:37;17.60;58.10
1259;DHT22;619;51.472;6.628;2023-05-20T00:26:03;17.50;57.90
1259;DHT22;619;51.472;6.628;2023-05-20T00:28:28;17.50;57.80
1259;DHT22;619;51.472;6.628;2023-05-20T00:30:55;17.50;58.00
1259;DHT22;619;51.472;6.628;2023-05-20T00:33:22;17.50;57.90
1259;DHT22;619;51.472;6.628;2023-05-20T00:35:50;17.50;57.90
1259;DHT22;619;51.472;6.628;2023-05-20T00:38:20;17.50;58.00
1259;DHT22;619;51.472;6.628;2023-05-20T00:40:48;17.50;58.10
1259;DHT22;619;51.472;6.628;2023-05-20T00:43:16;17.40;58.20
1259;DHT22;619;51.472;6.628;2023-05-20T00:45:42;17.40;58.60
1259;DHT22;619;51.472;6.628;2023-05-20T00:48:07;17.40;58.60
1259;DHT22;619;51.472;6.628;2023-05-20T00:50:33;17.40;58.70
1259;DHT22;619;51.472;6.628;2023-05-20T00:53:04;17.30;58.60
1259;DHT22;619;51.472;6.628;2023-05-20T00:55:30;17.30;58.80
1259;DHT22;619;51.472;6.628;2023-05-20T00:57:56;17.30;58.80
1259;DHT22;619;51.472;6.628;2023-05-20T01:00:22;17.30;58.80
1259;DHT22;619;51.472;6.628;2023-05-20T01:02:48;17.20;58.80
1259;DHT22;619;51.472;6.628;2023-05-20T01:05:13;17.20;58.90
1259;DHT22;619;51.472;6.628;2023-05-20T01:07:42;17.20;59.10
1259;DHT22;619;51.472;6.628;2023-05-20T01:10:08;17.10;59.20
1259;DHT22;619;51.472;6.628;2023-05-20T01:12:47;17.10;59.20
1259;DHT22;619;51.472;6.628;2023-05-20T01:15:14;17.10;59.40
1259;DHT22;619;51.472;6.628;2023-05-20T01:17:45;17.00;59.50
1259;DHT22;619;51.472;6.628;2023-05-20T01:20:12;17.00;59.60
1259;DHT22;619;51.472;6.628;2023-05-20T01:22:58;17.00;59.80
1259;DHT22;619;51.472;6.628;2023-05-20T01:25:24;17.00;59.80
1259;DHT22;619;51.472;6.628;2023-05-20T01:27:51;16.90;59.80
1259;DHT22;619;51.472;6.628;2023-05-20T01:30:19;16.90;59.90
1259;DHT22;619;51.472;6.628;2023-05-20T01:32:52;16.90;60.30
1259;DHT22;619;51.472;6.628;2023-05-20T01:35:22;16.90;60.40
1259;DHT22;619;51.472;6.628;2023-05-20T01:37:52;16.80;60.40
1259;DHT22;619;51.472;6.628;2023-05-20T01:40:20;16.80;60.70
1259;DHT22;619;51.472;6.628;2023-05-20T01:42:49;16.80;60.90
1259;DHT22;619;51.472;6.628;2023-05-20T01:45:18;16.70;61.00
1259;DHT22;619;51.472;6.628;2023-05-20T01:47:46;16.70;61.20
1259;DHT22;619;51.472;6.628;2023-05-20T01:50:12;16.70;61.40
1259;DHT22;619;51.472;6.628;2023-05-20T01:52:38;16.70;61.40
1259;DHT22;619;51.472;6.628;2023-05-20T01:55:03;16.70;61.50
1259;DHT22;619;51.472;6.628;2023-05-20T01:57:32;16.60;61.60
1259;DHT22;619;51.472;6.628;2023-05-20T02:00:00;16.60;61.90
1259;DHT22;619;51.472;6.628;2023-05-20T02:02:26;16.60;62.10
1259;DHT22;619;51.472;6.628;2023-05-20T02:04:54;16.60;62.20
1259;DHT22;619;51.472;6.628;2023-05-20T02:07:19;16.50;62.50
1259;DHT22;619;51.472;6.628;2023-05-20T02:09:47;16.50;62.70
1259;DHT22;619;51.472;6.628;2023-05-20T02:12:13;16.50;63.00
1259;DHT22;619;51.472;6.628;2023-05-20T02:14:46;16.40;63.10
1259;DHT22;619;51.472;6.628;2023-05-20T02:17:13;16.40;63.10
1259;DHT22;619;51.472;6.628;2023-05-20T02:19:41;16.40;63.30
1259;DHT22;619;51.472;6.628;2023-05-20T02:22:07;16.30;63.40
1259;DHT22;619;51.472;6.628;2023-05-20T02:24:33;16.30;63.60
1259;DHT22;619;51.472;6.628;2023-05-20T02:27:01;16.30;63.80
1259;DHT22;619;51.472;6.628;2023-05-20T02:29:29;16.30;63.90
1259;DHT22;619;51.472;6.628;2023-05-20T02:31:54;16.20;64.00
1259;DHT22;619;51.472;6.628;2023-05-20T02:34:25;16.20;64.10
1259;DHT22;619;51.472;6.628;2023-05-20T02:36:51;16.20;64.30
1259;DHT22;619;51.472;6.628;2023-05-20T02:39:17;16.20;64.50
1259;DHT22;619;51.472;6.628;2023-05-20T02:41:45;16.20;64.70
1259;DHT22;619;51.472;6.628;2023-05-20T02:44:13;16.20;64.80
1259;DHT22;619;51.472;6.628;2023-05-20T02:46:38;16.20;65.00
1259;DHT22;619;51.472;6.628;2023-05-20T02:49:04;16.20;65.00
1259;DHT22;619;51.472;6.628;2023-05-20T02:51:30;16.20;65.10
1259;DHT22;619;51.472;6.628;2023-05-20T02:53:58;16.20;65.20
1259;DHT22;619;51.472;6.628;2023-05-20T02:56:24;16.20;65.30
1259;DHT22;619;51.472;6.628;2023-05-20T02:58:55;16.20;65.30
1259;DHT22;619;51.472;6.628;2023-05-20T03:01:20;16.20;65.30
1259;DHT22;619;51.472;6.628;2023-05-20T03:03:49;16.20;65.50
1259;DHT22;619;51.472;6.628;2023-05-20T03:06:18;16.20;65.60
1259;DHT22;619;51.472;6.628;2023-05-20T03:08:43;16.20;65.70
1259;DHT22;619;51.472;6.628;2023-05-20T03:11:11;16.20;65.80
1259;DHT22;619;51.472;6.628;2023-05-20T03:13:41;16.10;65.70
1259;DHT22;619;51.472;6.628;2023-05-20T03:16:09;16.10;66.00
1259;DHT22;619;51.472;6.628;2023-05-20T03:18:39;16.10;66.10
1259;DHT22;619;51.472;6.628;2023-05-20T03:21:05;16.10;66.30
1259;DHT22;619;51.472;6.628;2023-05-20T03:23:30;16.10;66.50
1259;DHT22;619;51.472;6.628;2023-05-20T03:25:58;16.10;66.60
1259;DHT22;619;51.472;6.628;2023-05-20T03:28:30;16.10;66.70
1259;DHT22;619;51.472;6.628;2023-05-20T03:30:58;16.10;66.60
1259;DHT22;619;51.472;6.628;2023-05-20T03:33:23;16.10;66.70
1259;DHT22;619;51.472;6.628;2023-05-20T03:35:50;16.10;66.80
1259;DHT22;619;51.472;6.628;2023-05-20T03:38:16;16.10;66.90
1259;DHT22;619;51.472;6.628;2023-05-20T03:40:41;16.10;67.00
1259;DHT22;619;51.472;6.628;2023-05-20T03:43:07;16.10;67.00
1259;DHT22;619;51.472;6.628;2023-05-20T03:45:32;16.10;67.20
1259;DHT22;619;51.472;6.628;2023-05-20T03:48:01;16.10;67.30
1259;DHT22;619;51.472;6.628;2023-05-20T03:50:30;16.10;67.40
1259;DHT22;619;51.472;6.628;2023-05-20T03:52:55;16.10;67.50
1259;DHT22;619;51.472;6.628;2023-05-20T03:55:23;16.10;67.50
1259;DHT22;619;51.472;6.628;2023-05-20T03:57:49;16.10;67.60
1259;DHT22;619;51.472;6.628;2023-05-20T04:00:15;16.10;67.70
1259;DHT22;619;51.472;6.628;2023-05-20T04:02:41;16.10;67.60
1259;DHT22;619;51.472;6.628;2023-05-20T04:05:07;16.10;67.50
1259;DHT22;619;51.472;6.628;2023-05-20T04:07:34;16.20;67.50
1259;DHT22;619;51.472;6.628;2023-05-20T04:10:03;16.20;67.30
1259;DHT22;619;51.472;6.628;2023-05-20T04:12:31;16.30;67.40
1259;DHT22;619;51.472;6.628;2023-05-20T04:14:59;16.30;67.40
1259;DHT22;619;51.472;6.628;2023-05-20T04:17:28;16.30;67.30
1259;DHT22;619;51.472;6.628;2023-05-20T04:19:57;16.40;67.40
1259;DHT22;619;51.472;6.628;2023-05-20T04:22:27;16.40;67.40
1259;DHT22;619;51.472;6.628;2023-05-20T04:24:55;16.40;67.40
1259;DHT22;619;51.472;6.628;2023-05-20T04:27:20;16.40;67.40
1259;DHT22;619;51.472;6.628;2023-05-20T04:29:46;16.50;67.50
1259;DHT22;619;51.472;6.628;2023-05-20T04:32:17;16.50;67.60
1259;DHT22;619;51.472;6.628;2023-05-20T04:34:46;16.50;67.60
1259;DHT22;619;51.472;6.628;2023-05-20T04:37:12;16.50;67.70
1259;DHT22;619;51.472;6.628;2023-05-20T04:39:38;16.50;67.70
1259;DHT22;619;51.472;6.628;2023-05-20T04:42:04;16.50;67.80
1259;DHT22;619;51.472;6.628;2023-05-20T04:44:35;16.50;67.80
1259;DHT22;619;51.472;6.628;2023-05-20T04:47:03;16.50;67.90
1259;DHT22;619;51.472;6.628;2023-05-20T04:49:31;16.50;67.90
1259;DHT22;619;51.472;6.628;2023-05-20T04:51:57;16.50;68.00
1259;DHT22;619;51.472;6.628;2023-05-20T04:54:25;16.60;68.10
1259;DHT22;619;51.472;6.628;2023-05-20T04:56:51;16.60;68.10
1259;DHT22;619;51.472;6.628;2023-05-20T04:59:16;16.60;68.20
1259;DHT22;619;51.472;6.628;2023-05-20T05:01:42;16.60;68.10
1259;DHT22;619;51.472;6.628;2023-05-20T05:04:10;16.60;68.20
1259;DHT22;619;51.472;6.628;2023-05-20T05:06:36;16.70;68.20
1259;DHT22;619;51.472;6.628;2023-05-20T05:09:01;16.70;68.20
1259;DHT22;619;51.472;6.628;2023-05-20T05:11:29;16.70;68.20
1259;DHT22;619;51.472;6.628;2023-05-20T05:13:58;16.80;68.30
1259;DHT22;619;51.472;6.628;2023-05-20T05:16:28;16.80;68.20
1259;DHT22;619;51.472;6.628;2023-05-20T05:18:54;16.80;68.10
1259;DHT22;619;51.472;6.628;2023-05-20T05:21:19;16.90;68.20
1259;DHT22;619;51.472;6.628;2023-05-20T05:23:45;16.90;68.10
1259;DHT22;619;51.472;6.628;2023-05-20T05:26:13;17.00;68.30
1259;DHT22;619;51.472;6.628;2023-05-20T05:28:41;17.00;68.00
1259;DHT22;619;51.472;6.628;2023-05-20T05:31:08;17.10;68.00
1259;DHT22;619;51.472;6.628;2023-05-20T05:33:33;17.20;68.00
1259;DHT22;619;51.472;6.628;2023-05-20T05:35:59;17.30;67.90
1259;DHT22;619;51.472;6.628;2023-05-20T05:38:26;17.30;67.60
1259;DHT22;619;51.472;6.628;2023-05-20T05:40:54;17.30;67.30
1259;DHT22;619;51.472;6.628;2023-05-20T05:43:19;17.40;67.20
1259;DHT22;619;51.472;6.628;2023-05-20T05:45:45;17.50;67.10
1259;DHT22;619;51.472;6.628;2023-05-20T05:48:13;17.60;67.20
1259;DHT22;619;51.472;6.628;2023-05-20T05:50:42;17.60;66.70
1259;DHT22;619;51.472;6.628;2023-05-20T05:53:08;17.60;66.70
1259;DHT22;619;51.472;6.628;2023-05-20T05:55:35;17.70;66.80
1259;DHT22;619;51.472;6.628;2023-05-20T05:58:01;17.70;66.60
1259;DHT22;619;51.472;6.628;2023-05-20T06:00:27;17.80;66.40
1259;DHT22;619;51.472;6.628;2023-05-20T06:02:52;17.80;66.30
1259;DHT22;619;51.472;6.628;2023-05-20T06:05:23;17.90;66.30
1259;DHT22;619;51.472;6.628;2023-05-20T06:07:51;18.00;65.90
1259;DHT22;619;51.472;6.628;2023-05-20T06:10:16;18.10;65.90
1259;DHT22;619;51.472;6.628;2023-05-20T06:12:44;18.10;65.20
1259;DHT22;619;51.472;6.628;2023-05-20T06:15:15;18.20;64.70
1259;DHT22;619;51.472;6.628;2023-05-20T06:17:43;18.30;64.40
1259;DHT22;619;51.472;6.628;2023-05-20T06:20:09;18.30;64.40
1259;DHT22;619;51.472;6.628;2023-05-20T06:22:37;18.30;64.30
1259;DHT22;619;51.472;6.628;2023-05-20T06:25:03;18.40;64.50
1259;DHT22;619;51.472;6.628;2023-05-20T06:27:31;18.40;64.10
1259;DHT22;619;51.472;6.628;2023-05-20T06:29:56;18.40;64.00
1259;DHT22;619;51.472;6.628;2023-05-20T06:32:24;18.50;63.90
1259;DHT22;619;51.472;6.628;2023-05-20T06:34:50;18.60;63.80
1259;DHT22;619;51.472;6.628;2023-05-20T06:37:15;18.60;63.20
1259;DHT22;619;51.472;6.628;2023-05-20T06:39:46;18.70;63.60
1259;DHT22;619;51.472;6.628;2023-05-20T06:42:15;18.80;63.20
1259;DHT22;619;51.472;6.628;2023-05-20T06:44:41;18.90;63.20
1259;DHT22;619;51.472;6.628;2023-05-20T06:47:09;19.00;63.60
1259;DHT22;619;51.472;6.628;2023-05-20T06:49:34;19.20;63.00
1259;DHT22;619;51.472;6.628;2023-05-20T06:52:00;19.20;62.30
1259;DHT22;619;51.472;6.628;2023-05-20T06:54:30;19.30;62.30
1259;DHT22;619;51.472;6.628;2023-05-20T06:56:58;19.40;61.90
1259;DHT22;619;51.472;6.628;2023-05-20T06:59:24;19.50;62.10
1259;DHT22;619;51.472;6.628;2023-05-20T07:01:50;19.60;61.60
1259;DHT22;619;51.472;6.628;2023-05-20T07:04:17;19.80;61.90
1259;DHT22;619;51.472;6.628;2023-05-20T07:06:47;19.80;60.70
1259;DHT22;619;51.472;6.628;2023-05-20T07:09:13;19.80;60.70
1259;DHT22;619;51.472;6.628;2023-05-20T07:11:38;19.90;60.80
1259;DHT22;619;51.472;6.628;2023-05-20T07:14:06;19.90;60.40
1259;DHT22;619;51.472;6.628;2023-05-20T07:16:35;19.90;60.00
1259;DHT22;619;51.472;6.628;2023-05-20T07:19:02;20.10;60.70
1259;DHT22;619;51.472;6.628;2023-05-20T07:21:27;20.20;60.10
1259;DHT22;619;51.472;6.628;2023-05-20T07:23:53;20.30;60.30
1259;DHT22;619;51.472;6.628;2023-05-20T07:26:19;20.40;60.10
1259;DHT22;619;51.472;6.628;2023-05-20T07:28:44;20.50;59.10
1259;DHT22;619;51.472;6.628;2023-05-20T07:31:11;20.60;59.20
1259;DHT22;619;51.472;6.628;2023-05-20T07:33:39;20.70;59.40
1259;DHT22;619;51.472;6.628;2023-05-20T07:36:05;20.90;58.80
1259;DHT22;619;51.472;6.628;2023-05-20T07:38:31;20.90;58.00
1259;DHT22;619;51.472;6.628;2023-05-20T07:40:57;20.80;57.30
1259;DHT22;619;51.472;6.628;2023-05-20T07:43:25;20.80;56.80
1259;DHT22;619;51.472;6.628;2023-05-20T07:45:50;20.80;57.30
1259;DHT22;619;51.472;6.628;2023-05-20T07:48:16;20.80;57.60
1259;DHT22;619;51.472;6.628;2023-05-20T07:50:44;20.80;57.70
1259;DHT22;619;51.472;6.628;2023-05-20T07:53:10;20.90;58.30
1259;DHT22;619;51.472;6.628;2023-05-20T07:55:37;21.10;58.10
1259;DHT22;619;51.472;6.628;2023-05-20T07:58:04;21.20;57.30
1259;DHT22;619;51.472;6.628;2023-05-20T08:00:29;21.20;56.80
1259;DHT22;619;51.472;6.628;2023-05-20T08:02:58;21.10;56.80
1259;DHT22;619;51.472;6.628;2023-05-20T08:05:23;21.20;57.20
1259;DHT22;619;51.472;6.628;2023-05-20T08:07:49;21.20;57.00
1259;DHT22;619;51.472;6.628;2023-05-20T08:10:17;21.20;57.10
1259;DHT22;619;51.472;6.628;2023-05-20T08:12:45;21.30;57.30
1259;DHT22;619;51.472;6.628;2023-05-20T08:15:11;21.40;57.40
1259;DHT22;619;51.472;6.628;2023-05-20T08:17:41;21.60;57.30
1259;DHT22;619;51.472;6.628;2023-05-20T08:20:12;21.70;57.00
1259;DHT22;619;51.472;6.628;2023-05-20T08:22:40;21.80;56.70
1259;DHT22;619;51.472;6.628;2023-05-20T08:25:07;21.90;56.80
1259;DHT22;619;51.472;6.628;2023-05-20T08:27:34;22.00;56.30
1259;DHT22;619;51.472;6.628;2023-05-20T08:30:00;21.90;56.20
1259;DHT22;619;51.472;6.628;2023-05-20T08:32:26;21.90;56.40
1259;DHT22;619;51.472;6.628;2023-05-20T08:34:52;22.00;56.60
1259;DHT22;619;51.472;6.628;2023-05-20T08:37:20;22.00;56.60
1259;DHT22;619;51.472;6.628;2023-05-20T08:39:48;22.00;56.70
1259;DHT22;619;51.472;6.628;2023-05-20T08:42:14;22.10;56.90
1259;DHT22;619;51.472;6.628;2023-05-20T08:44:41;22.00;56.50
1259;DHT22;619;51.472;6.628;2023-05-20T08:47:10;22.10;57.00
1259;DHT22;619;51.472;6.628;2023-05-20T08:49:40;22.10;56.60
1259;DHT22;619;51.472;6.628;2023-05-20T08:52:07;22.10;57.00
1259;DHT22;619;51.472;6.628;2023-05-20T08:54:43;22.20;57.50
1259;DHT22;619;51.472;6.628;2023-05-20T08:57:10;22.40;57.70
1259;DHT22;619;51.472;6.628;2023-05-20T08:59:40;22.50;56.20
1259;DHT22;619;51.472;6.628;2023-05-20T09:02:07;22.50;55.60
1259;DHT22;619;51.472;6.628;2023-05-20T09:04:33;22.60;56.10
1259;DHT22;619;51.472;6.628;2023-05-20T09:06:58;22.70;56.30
1259;DHT22;619;51.472;6.628;2023-05-20T09:09:26;22.90;56.20
1259;DHT22;619;51.472;6.628;2023-05-20T09:11:52;23.00;55.80
1259;DHT22;619;51.472;6.628;2023-05-20T09:14:17;23.20;56.50
1259;DHT22;619;51.472;6.628;2023-05-20T09:16:43;23.40;55.40
1259;DHT22;619;51.472;6.628;2023-05-20T09:19:09;23.50;54.60
1259;DHT22;619;51.472;6.628;2023-05-20T09:21:37;23.50;54.70
1259;DHT22;619;51.472;6.628;2023-05-20T09:24:05;23.50;55.30
1259;DHT22;619;51.472;6.628;2023-05-20T09:26:31;23.70;55.00
1259;DHT22;619;51.472;6.628;2023-05-20T09:28:57;23.70;54.30
1259;DHT22;619;51.472;6.628;2023-05-20T09:31:27;23.60;54.20
1259;DHT22;619;51.472;6.628;2023-05-20T09:33:54;23.60;54.60
1259;DHT22;619;51.472;6.628;2023-05-20T09:36:22;23.70;54.90
1259;DHT22;619;51.472;6.628;2023-05-20T09:38:53;23.80;55.20
1259;DHT22;619;51.472;6.628;2023-05-20T09:41:32;24.00;54.60
1259;DHT22;619;51.472;6.628;2023-05-20T09:43:58;24.20;54.70
1259;DHT22;619;51.472;6.628;2023-05-20T09:46:25;24.30;54.10
1259;DHT22;619;51.472;6.628;2023-05-20T09:48:52;24.40;53.50
1259;DHT22;619;51.472;6.628;2023-05-20T09:51:19;24.30;53.50
1259;DHT22;619;51.472;6.628;2023-05-20T09:53:52;24.20;53.00
1259;DHT22;619;51.472;6.628;2023-05-20T09:56:19;24.10;54.00
1259;DHT22;619;51.472;6.628;2023-05-20T09:58:46;24.00;54.20
1259;DHT22;619;51.472;6.628;2023-05-20T10:01:16;24.00;54.90
1259;DHT22;619;51.472;6.628;2023-05-20T10:03:43;24.00;54.80
1259;DHT22;619;51.472;6.628;2023-05-20T10:15:01;24.00;54.90
1259;DHT22;619;51.472;6.628;2023-05-20T10:17:41;24.10;54.30
1259;DHT22;619;51.472;6.628;2023-05-20T10:20:11;24.20;54.40
1259;DHT22;619;51.472;6.628;2023-05-20T10:22:38;24.40;54.80
1259;DHT22;619;51.472;6.628;2023-05-20T10:25:10;24.50;54.20
1259;DHT22;619;51.472;6.628;2023-05-20T10:27:46;24.70;54.20
1259;DHT22;619;51.472;6.628;2023-05-20T10:30:20;24.80;53.60
1259;DHT22;619;51.472;6.628;2023-05-20T10:32:56;24.90;53.20
1259;DHT22;619;51.472;6.628;2023-05-20T10:35:26;24.80;53.10
1259;DHT22;619;51.472;6.628;2023-05-20T10:38:09;24.70;53.30
1259;DHT22;619;51.472;6.628;2023-05-20T10:40:35;24.60;53.50
1259;DHT22;619;51.472;6.628;2023-05-20T10:43:10;24.50;53.20
1259;DHT22;619;51.472;6.628;2023-05-20T10:45:49;24.50;54.10
1259;DHT22;619;51.472;6.628;2023-05-20T10:48:47;24.60;54.50
1259;DHT22;619;51.472;6.628;2023-05-20T10:51:17;24.80;53.40
1259;DHT22;619;51.472;6.628;2023-05-20T10:53:47;24.90;53.20
1259;DHT22;619;51.472;6.628;2023-05-20T10:56:23;25.10;53.30
1259;DHT22;619;51.472;6.628;2023-05-20T10:58:50;25.20;53.40
1259;DHT22;619;51.472;6.628;2023-05-20T11:01:16;25.30;53.80
1259;DHT22;619;51.472;6.628;2023-05-20T11:03:47;25.60;53.40
1259;DHT22;619;51.472;6.628;2023-05-20T11:06:14;25.80;53.20
1259;DHT22;619;51.472;6.628;2023-05-20T11:08:43;25.90;53.30
1259;DHT22;619;51.472;6.628;2023-05-20T11:11:10;26.10;52.70
1259;DHT22;619;51.472;6.628;2023-05-20T11:13:38;26.20;52.10
1259;DHT22;619;51.472;6.628;2023-05-20T11:16:04;26.30;52.50
1259;DHT22;619;51.472;6.628;2023-05-20T11:18:30;26.40;52.30
1259;DHT22;619;51.472;6.628;2023-05-20T11:21:00;26.30;50.70
1259;DHT22;619;51.472;6.628;2023-05-20T11:23:29;26.30;51.10
1259;DHT22;619;51.472;6.628;2023-05-20T11:25:57;26.20;51.50
1259;DHT22;619;51.472;6.628;2023-05-20T11:28:28;26.20;51.50
1259;DHT22;619;51.472;6.628;2023-05-20T11:30:54;26.00;51.00
1259;DHT22;619;51.472;6.628;2023-05-20T11:33:24;26.00;51.40
1259;DHT22;619;51.472;6.628;2023-05-20T11:35:51;25.80;51.90
1259;DHT22;619;51.472;6.628;2023-05-20T11:38:20;25.80;51.80
1259;DHT22;619;51.472;6.628;2023-05-20T11:40:50;25.70;52.10
1259;DHT22;619;51.472;6.628;2023-05-20T11:43:16;25.60;52.60
1259;DHT22;619;51.472;6.628;2023-05-20T11:45:46;25.60;53.10
1259;DHT22;619;51.472;6.628;2023-05-20T11:48:14;25.60;52.40
1259;DHT22;619;51.472;6.628;2023-05-20T11:50:44;25.50;52.30
1259;DHT22;619;51.472;6.628;2023-05-20T11:53:13;25.40;52.70
1259;DHT22;619;51.472;6.628;2023-05-20T11:58:20;25.40;53.30
1259;DHT22;619;51.472;6.628;2023-05-20T12:00:49;25.40;53.30
1259;DHT22;619;51.472;6.628;2023-05-20T12:03:15;25.40;53.80
1259;DHT22;619;51.472;6.628;2023-05-20T12:05:41;25.60;53.80
1259;DHT22;619;51.472;6.628;2023-05-20T12:08:12;25.70;53.90
1259;DHT22;619;51.472;6.628;2023-05-20T12:10:37;25.90;53.40
1259;DHT22;619;51.472;6.628;2023-05-20T12:13:06;26.10;53.20
1259;DHT22;619;51.472;6.628;2023-05-20T12:15:38;26.20;52.20
1259;DHT22;619;51.472;6.628;2023-05-20T12:18:03;26.20;51.90
1259;DHT22;619;51.472;6.628;2023-05-20T12:20:34;26.20;52.20
1259;DHT22;619;51.472;6.628;2023-05-20T12:23:01;26.20;52.40
1259;DHT22;619;51.472;6.628;2023-05-20T12:25:27;26.30;52.50
1259;DHT22;619;51.472;6.628;2023-05-20T12:27:55;26.40;52.30
1259;DHT22;619;51.472;6.628;2023-05-20T12:30:22;26.30;51.90
1259;DHT22;619;51.472;6.628;2023-05-20T12:32:49;26.40;53.10
1259;DHT22;619;51.472;6.628;2023-05-20T12:35:16;26.60;52.50
1259;DHT22;619;51.472;6.628;2023-05-20T12:37:42;26.50;52.00
1259;DHT22;619;51.472;6.628;2023-05-20T12:40:11;26.50;53.20
1259;DHT22;619;51.472;6.628;2023-05-20T12:42:43;26.60;52.30
1259;DHT22;619;51.472;6.628;2023-05-20T12:45:08;26.60;51.70
1259;DHT22;619;51.472;6.628;2023-05-20T12:47:35;26.70;53.40
1259;DHT22;619;51.472;6.628;2023-05-20T12:50:03;26.80;51.80
1259;DHT22;619;51.472;6.628;2023-05-20T12:52:29;26.80;51.60
1259;DHT22;619;51.472;6.628;2023-05-20T12:54:57;26.90;51.80
1259;DHT22;619;51.472;6.628;2023-05-20T12:57:25;27.00;51.90
1259;DHT22;619;51.472;6.628;2023-05-20T12:59:51;27.10;51.40
1259;DHT22;619;51.472;6.628;2023-05-20T13:02:17;27.20;51.70
1259;DHT22;619;51.472;6.628;2023-05-20T13:04:43;27.20;50.90
1259;DHT22;619;51.472;6.628;2023-05-20T13:07:08;27.10;51.20
1259;DHT22;619;51.472;6.628;2023-05-20T13:09:36;27.10;51.90
1259;DHT22;619;51.472;6.628;2023-05-20T13:12:05;27.10;51.50
1259;DHT22;619;51.472;6.628;2023-05-20T13:14:30;27.00;50.80
1259;DHT22;619;51.472;6.628;2023-05-20T13:16:56;26.70;50.90
1259;DHT22;619;51.472;6.628;2023-05-20T13:19:22;26.60;51.60
1259;DHT22;619;51.472;6.628;2023-05-20T13:21:50;26.60;51.40
1259;DHT22;619;51.472;6.628;2023-05-20T13:24:16;26.60;51.90
1259;DHT22;619;51.472;6.628;2023-05-20T13:26:42;26.70;51.70
1259;DHT22;619;51.472;6.628;2023-05-20T13:29:08;26.80;51.50
1259;DHT22;619;51.472;6.628;2023-05-20T13:31:37;26.90;51.10
1259;DHT22;619;51.472;6.628;2023-05-20T13:34:05;27.00;51.40
1259;DHT22;619;51.472;6.628;2023-05-20T13:36:30;27.10;51.00
1259;DHT22;619;51.472;6.628;2023-05-20T13:38:56;27.00;49.60
1259;DHT22;619;51.472;6.628;2023-05-20T13:41:23;27.00;50.20
1259;DHT22;619;51.472;6.628;2023-05-20T13:43:49;27.20;50.60
1259;DHT22;619;51.472;6.628;2023-05-20T13:46:17;27.30;50.30
1259;DHT22;619;51.472;6.628;2023-05-20T13:48:43;27.50;50.40
1259;DHT22;619;51.472;6.628;2023-05-20T13:51:08;27.50;49.80
1259;DHT22;619;51.472;6.628;2023-05-20T13:53:34;27.60;50.20
1259;DHT22;619;51.472;6.628;2023-05-20T13:56:00;27.60;49.50
1259;DHT22;619;51.472;6.628;2023-05-20T13:58:25;27.50;49.50
1259;DHT22;619;51.472;6.628;2023-05-20T14:00:51;27.50;50.40
1259;DHT22;619;51.472;6.628;2023-05-20T14:03:20;27.60;50.50
1259;DHT22;619;51.472;6.628;2023-05-20T14:05:48;27.70;50.10
1259;DHT22;619;51.472;6.628;2023-05-20T14:08:14;27.80;49.20
1259;DHT22;619;51.472;6.628;2023-05-20T14:10:42;27.90;49.70
1259;DHT22;619;51.472;6.628;2023-05-20T14:13:09;27.80;48.20
1259;DHT22;619;51.472;6.628;2023-05-20T14:15:35;27.70;48.30
1259;DHT22;619;51.472;6.628;2023-05-20T14:18:01;27.50;48.40
1259;DHT22;619;51.472;6.628;2023-05-20T14:20:26;27.30;48.80
1259;DHT22;619;51.472;6.628;2023-05-20T14:22:54;27.20;48.90
1259;DHT22;619;51.472;6.628;2023-05-20T14:25:27;27.10;49.10
1259;DHT22;619;51.472;6.628;2023-05-20T14:27:55;27.10;49.10
1259;DHT22;619;51.472;6.628;2023-05-20T14:30:20;27.00;49.30
1259;DHT22;619;51.472;6.628;2023-05-20T14:32:49;26.90;49.30
1259;DHT22;619;51.472;6.628;2023-05-20T14:35:15;26.80;49.10
1259;DHT22;619;51.472;6.628;2023-05-20T14:37:41;26.70;50.20
1259;DHT22;619;51.472;6.628;2023-05-20T14:40:09;26.70;50.30
1259;DHT22;619;51.472;6.628;2023-05-20T14:42:35;26.60;49.70
1259;DHT22;619;51.472;6.628;2023-05-20T14:45:03;26.50;50.10
1259;DHT22;619;51.472;6.628;2023-05-20T14:47:29;26.50;50.30
1259;DHT22;619;51.472;6.628;2023-05-20T14:49:57;26.40;50.00
1259;DHT22;619;51.472;6.628;2023-05-20T14:52:23;26.30;50.10
1259;DHT22;619;51.472;6.628;2023-05-20T14:54:49;26.20;49.70
1259;DHT22;619;51.472;6.628;2023-05-20T14:57:17;26.10;49.50
1259;DHT22;619;51.472;6.628;2023-05-20T14:59:44;26.10;50.00
1259;DHT22;619;51.472;6.628;2023-05-20T15:02:14;26.00;50.00
1259;DHT22;619;51.472;6.628;2023-05-20T15:04:44;26.00;50.90
1259;DHT22;619;51.472;6.628;2023-05-20T15:07:12;26.00;51.80
1259;DHT22;619;51.472;6.628;2023-05-20T15:09:41;26.10;50.70
1259;DHT22;619;51.472;6.628;2023-05-20T15:12:08;26.10;50.90
1259;DHT22;619;51.472;6.628;2023-05-20T15:14:36;26.10;50.80
1259;DHT22;619;51.472;6.628;2023-05-20T15:17:03;26.00;50.40
1259;DHT22;619;51.472;6.628;2023-05-20T15:19:30;26.00;50.70
1259;DHT22;619;51.472;6.628;2023-05-20T15:21:58;26.00;51.00
1259;DHT22;619;51.472;6.628;2023-05-20T15:24:27;26.20;50.30
1259;DHT22;619;51.472;6.628;2023-05-20T15:26:53;26.30;50.10
1259;DHT22;619;51.472;6.628;2023-05-20T15:29:19;26.40;50.50
1259;DHT22;619;51.472;6.628;2023-05-20T15:31:45;26.60;50.00
1259;DHT22;619;51.472;6.628;2023-05-20T15:34:11;26.70;50.00
1259;DHT22;619;51.472;6.628;2023-05-20T15:36:39;26.80;49.40
1259;DHT22;619;51.472;6.628;2023-05-20T15:39:06;26.90;50.10
1259;DHT22;619;51.472;6.628;2023-05-20T15:41:35;26.80;49.50
1259;DHT22;619;51.472;6.628;2023-05-20T15:44:02;26.90;50.60
1259;DHT22;619;51.472;6.628;2023-05-20T15:46:28;26.70;49.30
1259;DHT22;619;51.472;6.628;2023-05-20T15:48:56;26.60;50.10
1259;DHT22;619;51.472;6.628;2023-05-20T15:51:22;26.50;50.30
1259;DHT22;619;51.472;6.628;2023-05-20T15:53:50;26.40;50.50
1259;DHT22;619;51.472;6.628;2023-05-20T15:56:18;26.40;50.70
1259;DHT22;619;51.472;6.628;2023-05-20T15:58:44;26.60;50.90
1259;DHT22;619;51.472;6.628;2023-05-20T16:01:09;26.50;50.00
1259;DHT22;619;51.472;6.628;2023-05-20T16:03:35;26.60;50.30
1259;DHT22;619;51.472;6.628;2023-05-20T16:06:01;26.50;50.30
1259;DHT22;619;51.472;6.628;2023-05-20T16:08:26;26.40;50.30
1259;DHT22;619;51.472;6.628;2023-05-20T16:10:53;26.20;50.30
1259;DHT22;619;51.472;6.628;2023-05-20T16:13:19;26.20;50.50
1259;DHT22;619;51.472;6.628;2023-05-20T16:15:45;26.10;50.50
1259;DHT22;619;51.472;6.628;2023-05-20T16:18:11;26.00;50.70
1259;DHT22;619;51.472;6.628;2023-05-20T16:20:37;26.00;50.80
1259;DHT22;619;51.472;6.628;2023-05-20T16:23:04;26.00;51.00
1259;DHT22;619;51.472;6.628;2023-05-20T16:25:30;26.10;50.70
1259;DHT22;619;51.472;6.628;2023-05-20T16:27:58;26.10;50.40
1259;DHT22;619;51.472;6.628;2023-05-20T16:30:25;26.10;50.70